sensor_id;sensor_type;location;lat;lon;timestamp;temperature;humidity
17425;DHT22;8830;50.978;5.058;2022-08-03T00:01:46;21.80;99.90
17425;DHT22;8830;50.978;5.058;2022-08-03T00:04:13;21.70;99.90
17425;DHT22;8830;50.978;5.058;2022-08-03T00:06:40;21.70;99.90
17425;DHT22;8830;50.978;5.058;2022-08-03T00:09:08;21.70;99.90
17425;DHT22;8830;50.978;5.058;2022-08-03T00:11:36;21.60;99.90
17425;DHT22;8830;50.978;5.058;2022-08-03T00:14:03;21.60;99.90
17425;DHT22;8830;50.978;5.058;2022-08-03T00:21:27;21.50;99.90
17425;DHT22;8830;50.978;5.058;2022-08-03T00:23:54;21.50;99.90
17425;DHT22;8830;50.978;5.058;2022-08-03T00:26:22;21.30;99.90
17425;DHT22;8830;50.978;5.058;2022-08-03T00:28:49;21.30;99.90
17425;DHT22;8830;50.978;5.058;2022-08-03T00:31:16;21.30;99.90
17425;DHT22;8830;50.978;5.058;2022-08-03T00:36:12;21.40;99.90
17425;DHT22;8830;50.978;5.058;2022-08-03T00:38:39;21.40;99.90
17425;DHT22;8830;50.978;5.058;2022-08-03T00:41:06;21.40;99.90
17425;DHT22;8830;50.978;5.058;2022-08-03T00:43:33;21.30;99.90
17425;DHT22;8830;50.978;5.058;2022-08-03T00:46:00;21.40;99.90
17425;DHT22;8830;50.978;5.058;2022-08-03T00:48:27;21.40;99.90
17425;DHT22;8830;50.978;5.058;2022-08-03T00:50:57;21.40;99.90
17425;DHT22;8830;50.978;5.058;2022-08-03T00:53:26;21.30;99.90
17425;DHT22;8830;50.978;5.058;2022-08-03T00:55:53;21.30;99.90
17425;DHT22;8830;50.978;5.058;2022-08-03T00:58:20;21.30;99.90
17425;DHT22;8830;50.978;5.058;2022-08-03T01:03:17;21.20;99.90
17425;DHT22;8830;50.978;5.058;2022-08-03T01:05:51;21.20;99.90
17425;DHT22;8830;50.978;5.058;2022-08-03T01:08:24;21.10;99.90
17425;DHT22;8830;50.978;5.058;2022-08-03T01:11:01;21.10;99.90
17425;DHT22;8830;50.978;5.058;2022-08-03T01:13:47;20.90;99.90
17425;DHT22;8830;50.978;5.058;2022-08-03T01:16:20;20.90;99.90
17425;DHT22;8830;50.978;5.058;2022-08-03T01:18:54;20.90;99.90
17425;DHT22;8830;50.978;5.058;2022-08-03T01:21:26;20.90;99.90
17425;DHT22;8830;50.978;5.058;2022-08-03T01:24:03;20.90;99.90
17425;DHT22;8830;50.978;5.058;2022-08-03T01:26:47;20.70;99.90
17425;DHT22;8830;50.978;5.058;2022-08-03T01:29:51;20.70;99.90
17425;DHT22;8830;50.978;5.058;2022-08-03T01:32:20;20.60;99.90
17425;DHT22;8830;50.978;5.058;2022-08-03T01:34:58;20.60;99.90
17425;DHT22;8830;50.978;5.058;2022-08-03T01:37:38;20.70;99.90
17425;DHT22;8830;50.978;5.058;2022-08-03T01:40:08;20.60;99.90
17425;DHT22;8830;50.978;5.058;2022-08-03T01:42:40;20.40;99.90
17425;DHT22;8830;50.978;5.058;2022-08-03T01:45:12;20.40;99.90
17425;DHT22;8830;50.978;5.058;2022-08-03T01:47:40;20.50;99.90
17425;DHT22;8830;50.978;5.058;2022-08-03T01:50:09;20.40;99.90
17425;DHT22;8830;50.978;5.058;2022-08-03T01:52:39;20.50;99.90
17425;DHT22;8830;50.978;5.058;2022-08-03T01:55:07;20.50;99.90
17425;DHT22;8830;50.978;5.058;2022-08-03T01:57:36;20.50;99.90
17425;DHT22;8830;50.978;5.058;2022-08-03T02:00:05;20.40;99.90
17425;DHT22;8830;50.978;5.058;2022-08-03T02:02:36;20.50;99.90
17425;DHT22;8830;50.978;5.058;2022-08-03T02:05:07;20.50;99.90
17425;DHT22;8830;50.978;5.058;2022-08-03T02:07:36;20.50;99.90
17425;DHT22;8830;50.978;5.058;2022-08-03T02:10:05;20.40;99.90
17425;DHT22;8830;50.978;5.058;2022-08-03T02:12:33;20.40;99.90
17425;DHT22;8830;50.978;5.058;2022-08-03T02:15:03;20.20;99.90
17425;DHT22;8830;50.978;5.058;2022-08-03T02:17:32;20.20;99.90
17425;DHT22;8830;50.978;5.058;2022-08-03T02:20:02;20.30;99.90
17425;DHT22;8830;50.978;5.058;2022-08-03T02:22:32;20.30;99.90
17425;DHT22;8830;50.978;5.058;2022-08-03T02:24:59;20.40;99.90
17425;DHT22;8830;50.978;5.058;2022-08-03T02:27:28;20.40;99.90
17425;DHT22;8830;50.978;5.058;2022-08-03T02:30:03;20.40;99.90
17425;DHT22;8830;50.978;5.058;2022-08-03T02:32:34;20.40;99.90
17425;DHT22;8830;50.978;5.058;2022-08-03T02:35:08;20.30;99.90
17425;DHT22;8830;50.978;5.058;2022-08-03T02:37:40;20.30;99.90
17425;DHT22;8830;50.978;5.058;2022-08-03T02:40:09;20.30;99.90
17425;DHT22;8830;50.978;5.058;2022-08-03T02:42:38;20.30;99.90
17425;DHT22;8830;50.978;5.058;2022-08-03T02:45:09;20.20;99.90
17425;DHT22;8830;50.978;5.058;2022-08-03T02:47:40;20.10;99.90
17425;DHT22;8830;50.978;5.058;2022-08-03T02:50:10;20.20;99.90
17425;DHT22;8830;50.978;5.058;2022-08-03T02:52:39;20.20;99.90
17425;DHT22;8830;50.978;5.058;2022-08-03T02:55:09;20.10;99.90
17425;DHT22;8830;50.978;5.058;2022-08-03T02:57:37;20.10;99.90
17425;DHT22;8830;50.978;5.058;2022-08-03T03:00:07;20.00;99.90
17425;DHT22;8830;50.978;5.058;2022-08-03T03:02:36;20.00;99.90
17425;DHT22;8830;50.978;5.058;2022-08-03T03:05:04;20.00;99.90
17425;DHT22;8830;50.978;5.058;2022-08-03T03:07:33;20.00;99.90
17425;DHT22;8830;50.978;5.058;2022-08-03T03:10:02;19.90;99.90
17425;DHT22;8830;50.978;5.058;2022-08-03T03:12:30;19.80;99.90
17425;DHT22;8830;50.978;5.058;2022-08-03T03:14:59;19.80;99.90
17425;DHT22;8830;50.978;5.058;2022-08-03T03:17:26;19.80;99.90
17425;DHT22;8830;50.978;5.058;2022-08-03T03:19:55;19.80;99.90
17425;DHT22;8830;50.978;5.058;2022-08-03T03:22:23;19.70;99.90
17425;DHT22;8830;50.978;5.058;2022-08-03T03:24:52;19.60;99.90
17425;DHT22;8830;50.978;5.058;2022-08-03T03:27:21;19.60;99.90
17425;DHT22;8830;50.978;5.058;2022-08-03T03:29:48;19.70;99.90
17425;DHT22;8830;50.978;5.058;2022-08-03T03:32:15;19.70;99.90
17425;DHT22;8830;50.978;5.058;2022-08-03T03:34:43;19.60;99.90
17425;DHT22;8830;50.978;5.058;2022-08-03T03:37:10;19.50;99.90
17425;DHT22;8830;50.978;5.058;2022-08-03T03:39:37;19.50;99.90
17425;DHT22;8830;50.978;5.058;2022-08-03T03:42:06;19.40;99.90
17425;DHT22;8830;50.978;5.058;2022-08-03T03:44:33;19.30;99.90
17425;DHT22;8830;50.978;5.058;2022-08-03T03:47:00;19.20;99.90
17425;DHT22;8830;50.978;5.058;2022-08-03T03:49:29;19.20;99.90
17425;DHT22;8830;50.978;5.058;2022-08-03T03:51:57;19.20;99.90
17425;DHT22;8830;50.978;5.058;2022-08-03T03:54:25;19.00;99.90
17425;DHT22;8830;50.978;5.058;2022-08-03T03:59:21;19.10;99.90
17425;DHT22;8830;50.978;5.058;2022-08-03T04:01:48;19.10;99.90
17425;DHT22;8830;50.978;5.058;2022-08-03T04:04:30;19.10;99.90
17425;DHT22;8830;50.978;5.058;2022-08-03T04:07:15;19.10;99.90
17425;DHT22;8830;50.978;5.058;2022-08-03T04:10:04;19.00;99.90
17425;DHT22;8830;50.978;5.058;2022-08-03T04:12:51;19.00;99.90
17425;DHT22;8830;50.978;5.058;2022-08-03T04:15:28;18.90;99.90
17425;DHT22;8830;50.978;5.058;2022-08-03T04:18:13;19.00;99.90
17425;DHT22;8830;50.978;5.058;2022-08-03T04:20:49;19.10;99.90
17425;DHT22;8830;50.978;5.058;2022-08-03T04:23:26;19.10;99.90
17425;DHT22;8830;50.978;5.058;2022-08-03T04:26:04;19.10;99.90
17425;DHT22;8830;50.978;5.058;2022-08-03T04:28:48;19.10;99.90
17425;DHT22;8830;50.978;5.058;2022-08-03T04:31:32;19.10;99.90
17425;DHT22;8830;50.978;5.058;2022-08-03T04:34:11;19.20;99.90
17425;DHT22;8830;50.978;5.058;2022-08-03T04:36:47;19.30;99.90
17425;DHT22;8830;50.978;5.058;2022-08-03T04:39:32;19.40;99.90
17425;DHT22;8830;50.978;5.058;2022-08-03T04:42:06;19.40;99.90
17425;DHT22;8830;50.978;5.058;2022-08-03T04:44:53;19.50;99.90
17425;DHT22;8830;50.978;5.058;2022-08-03T04:50:32;19.50;99.90
17425;DHT22;8830;50.978;5.058;2022-08-03T04:53:02;19.60;99.90
17425;DHT22;8830;50.978;5.058;2022-08-03T04:55:35;19.70;99.90
17425;DHT22;8830;50.978;5.058;2022-08-03T04:58:03;19.70;99.90
17425;DHT22;8830;50.978;5.058;2022-08-03T05:00:31;19.70;99.90
17425;DHT22;8830;50.978;5.058;2022-08-03T05:03:08;19.80;99.90
17425;DHT22;8830;50.978;5.058;2022-08-03T05:05:55;20.00;99.90
17425;DHT22;8830;50.978;5.058;2022-08-03T05:08:42;20.10;99.90
17425;DHT22;8830;50.978;5.058;2022-08-03T05:11:22;20.10;99.90
17425;DHT22;8830;50.978;5.058;2022-08-03T05:14:05;20.80;99.90
17425;DHT22;8830;50.978;5.058;2022-08-03T05:16:53;21.00;99.90
17425;DHT22;8830;50.978;5.058;2022-08-03T05:19:49;23.10;99.90
17425;DHT22;8830;50.978;5.058;2022-08-03T05:22:39;25.10;99.90
17425;DHT22;8830;50.978;5.058;2022-08-03T05:25:18;27.60;99.90
17425;DHT22;8830;50.978;5.058;2022-08-03T05:33:10;29.20;99.90
17425;DHT22;8830;50.978;5.058;2022-08-03T05:36:06;29.30;99.90
17425;DHT22;8830;50.978;5.058;2022-08-03T05:39:13;29.80;99.90
17425;DHT22;8830;50.978;5.058;2022-08-03T05:42:13;30.10;99.90
17425;DHT22;8830;50.978;5.058;2022-08-03T05:45:41;30.50;99.90
17425;DHT22;8830;50.978;5.058;2022-08-03T05:48:36;31.30;99.90
17425;DHT22;8830;50.978;5.058;2022-08-03T05:51:32;31.00;99.90
17425;DHT22;8830;50.978;5.058;2022-08-03T06:05:22;32.90;99.90
17425;DHT22;8830;50.978;5.058;2022-08-03T06:08:09;33.20;99.90
17425;DHT22;8830;50.978;5.058;2022-08-03T06:11:01;33.50;99.90
17425;DHT22;8830;50.978;5.058;2022-08-03T06:16:24;33.50;99.90
17425;DHT22;8830;50.978;5.058;2022-08-03T06:19:12;34.10;99.90
17425;DHT22;8830;50.978;5.058;2022-08-03T06:22:03;34.50;99.90
17425;DHT22;8830;50.978;5.058;2022-08-03T06:24:47;34.40;99.90
17425;DHT22;8830;50.978;5.058;2022-08-03T06:27:35;34.40;99.90
17425;DHT22;8830;50.978;5.058;2022-08-03T06:30:09;34.90;99.90
17425;DHT22;8830;50.978;5.058;2022-08-03T06:32:44;35.30;99.90
17425;DHT22;8830;50.978;5.058;2022-08-03T06:35:34;35.60;99.90
17425;DHT22;8830;50.978;5.058;2022-08-03T06:38:03;35.60;99.90
17425;DHT22;8830;50.978;5.058;2022-08-03T06:40:41;35.60;99.90
17425;DHT22;8830;50.978;5.058;2022-08-03T06:43:15;35.60;99.90
17425;DHT22;8830;50.978;5.058;2022-08-03T06:45:43;35.70;99.90
17425;DHT22;8830;50.978;5.058;2022-08-03T06:48:11;35.50;99.90
17425;DHT22;8830;50.978;5.058;2022-08-03T06:50:41;35.60;99.90
17425;DHT22;8830;50.978;5.058;2022-08-03T06:53:09;35.90;99.90
17425;DHT22;8830;50.978;5.058;2022-08-03T06:55:36;36.00;99.90
17425;DHT22;8830;50.978;5.058;2022-08-03T07:00:32;36.00;99.90
17425;DHT22;8830;50.978;5.058;2022-08-03T07:03:00;36.20;99.90
17425;DHT22;8830;50.978;5.058;2022-08-03T07:05:27;36.10;99.90
17425;DHT22;8830;50.978;5.058;2022-08-03T07:07:55;36.70;99.90
17425;DHT22;8830;50.978;5.058;2022-08-03T07:10:24;37.20;99.90
17425;DHT22;8830;50.978;5.058;2022-08-03T07:12:54;36.90;99.90
17425;DHT22;8830;50.978;5.058;2022-08-03T07:15:22;36.60;99.90
17425;DHT22;8830;50.978;5.058;2022-08-03T07:17:50;36.60;99.90
17425;DHT22;8830;50.978;5.058;2022-08-03T07:20:18;36.90;99.90
17425;DHT22;8830;50.978;5.058;2022-08-03T07:22:45;37.20;99.90
17425;DHT22;8830;50.978;5.058;2022-08-03T07:25:13;37.00;99.90
17425;DHT22;8830;50.978;5.058;2022-08-03T07:27:42;37.40;99.90
17425;DHT22;8830;50.978;5.058;2022-08-03T07:30:11;37.30;99.90
17425;DHT22;8830;50.978;5.058;2022-08-03T07:32:39;37.10;99.90
17425;DHT22;8830;50.978;5.058;2022-08-03T07:35:09;36.70;99.90
17425;DHT22;8830;50.978;5.058;2022-08-03T07:37:36;36.70;99.90
17425;DHT22;8830;50.978;5.058;2022-08-03T07:45:00;36.60;99.90
17425;DHT22;8830;50.978;5.058;2022-08-03T07:47:29;37.30;99.90
17425;DHT22;8830;50.978;5.058;2022-08-03T07:49:57;37.50;99.10
17425;DHT22;8830;50.978;5.058;2022-08-03T07:52:26;37.60;99.30
17425;DHT22;8830;50.978;5.058;2022-08-03T07:55:11;37.60;99.00
17425;DHT22;8830;50.978;5.058;2022-08-03T07:57:38;37.30;98.80
17425;DHT22;8830;50.978;5.058;2022-08-03T08:00:11;37.30;98.20
17425;DHT22;8830;50.978;5.058;2022-08-03T08:02:38;37.40;98.40
17425;DHT22;8830;50.978;5.058;2022-08-03T08:05:07;37.60;97.60
17425;DHT22;8830;50.978;5.058;2022-08-03T08:07:37;35.20;96.90
17425;DHT22;8830;50.978;5.058;2022-08-03T08:10:05;37.70;97.30
17425;DHT22;8830;50.978;5.058;2022-08-03T08:12:34;37.60;97.60
17425;DHT22;8830;50.978;5.058;2022-08-03T08:15:03;38.20;96.60
17425;DHT22;8830;50.978;5.058;2022-08-03T08:17:30;38.20;96.90
17425;DHT22;8830;50.978;5.058;2022-08-03T08:19:58;37.80;97.10
17425;DHT22;8830;50.978;5.058;2022-08-03T08:22:25;37.90;96.40
17425;DHT22;8830;50.978;5.058;2022-08-03T08:24:55;37.70;96.00
17425;DHT22;8830;50.978;5.058;2022-08-03T08:27:22;37.40;96.40
17425;DHT22;8830;50.978;5.058;2022-08-03T08:29:49;37.80;96.00
17425;DHT22;8830;50.978;5.058;2022-08-03T08:32:17;38.30;95.80
17425;DHT22;8830;50.978;5.058;2022-08-03T08:34:44;38.50;95.70
17425;DHT22;8830;50.978;5.058;2022-08-03T08:37:11;39.00;94.50
17425;DHT22;8830;50.978;5.058;2022-08-03T08:39:39;39.00;94.60
17425;DHT22;8830;50.978;5.058;2022-08-03T08:42:09;39.20;94.40
17425;DHT22;8830;50.978;5.058;2022-08-03T08:44:36;38.90;94.30
17425;DHT22;8830;50.978;5.058;2022-08-03T08:47:04;39.10;94.00
17425;DHT22;8830;50.978;5.058;2022-08-03T08:49:32;39.20;93.80
17425;DHT22;8830;50.978;5.058;2022-08-03T08:52:02;39.20;93.10
17425;DHT22;8830;50.978;5.058;2022-08-03T08:54:31;39.20;93.50
17425;DHT22;8830;50.978;5.058;2022-08-03T08:57:02;39.30;93.10
17425;DHT22;8830;50.978;5.058;2022-08-03T08:59:33;39.10;93.20
17425;DHT22;8830;50.978;5.058;2022-08-03T09:02:00;39.10;92.30
17425;DHT22;8830;50.978;5.058;2022-08-03T09:04:28;39.20;92.60
17425;DHT22;8830;50.978;5.058;2022-08-03T09:09:24;39.20;91.90
17425;DHT22;8830;50.978;5.058;2022-08-03T09:11:51;39.40;91.40
17425;DHT22;8830;50.978;5.058;2022-08-03T09:14:18;39.40;91.30
17425;DHT22;8830;50.978;5.058;2022-08-03T09:16:56;39.50;91.00
17425;DHT22;8830;50.978;5.058;2022-08-03T09:19:36;38.60;90.90
17425;DHT22;8830;50.978;5.058;2022-08-03T09:22:13;38.60;91.30
17425;DHT22;8830;50.978;5.058;2022-08-03T09:24:54;38.20;91.10
17425;DHT22;8830;50.978;5.058;2022-08-03T09:29:50;37.80;91.70
17425;DHT22;8830;50.978;5.058;2022-08-03T09:32:21;37.70;92.00
17425;DHT22;8830;50.978;5.058;2022-08-03T09:34:50;36.50;92.30
17425;DHT22;8830;50.978;5.058;2022-08-03T09:37:19;36.10;92.50
17425;DHT22;8830;50.978;5.058;2022-08-03T09:44:50;33.50;94.60
17425;DHT22;8830;50.978;5.058;2022-08-03T09:47:31;33.10;95.00
17425;DHT22;8830;50.978;5.058;2022-08-03T09:50:05;32.90;95.40
17425;DHT22;8830;50.978;5.058;2022-08-03T09:55:17;33.30;95.50
17425;DHT22;8830;50.978;5.058;2022-08-03T10:05:43;33.60;95.80
17425;DHT22;8830;50.978;5.058;2022-08-03T10:08:17;33.60;96.00
17425;DHT22;8830;50.978;5.058;2022-08-03T10:10:58;33.10;95.80
17425;DHT22;8830;50.978;5.058;2022-08-03T10:13:35;33.00;96.10
17425;DHT22;8830;50.978;5.058;2022-08-03T10:18:58;33.30;96.50
17425;DHT22;8830;50.978;5.058;2022-08-03T10:21:32;33.30;96.30
17425;DHT22;8830;50.978;5.058;2022-08-03T10:26:38;33.50;96.60
17425;DHT22;8830;50.978;5.058;2022-08-03T10:29:27;33.50;96.60
17425;DHT22;8830;50.978;5.058;2022-08-03T10:32:11;33.50;96.80
17425;DHT22;8830;50.978;5.058;2022-08-03T10:34:51;33.80;96.50
17425;DHT22;8830;50.978;5.058;2022-08-03T10:37:28;33.70;96.40
17425;DHT22;8830;50.978;5.058;2022-08-03T10:40:04;33.30;96.80
17425;DHT22;8830;50.978;5.058;2022-08-03T10:42:40;33.20;97.00
17425;DHT22;8830;50.978;5.058;2022-08-03T10:47:45;33.50;97.10
17425;DHT22;8830;50.978;5.058;2022-08-03T10:50:25;33.70;96.80
17425;DHT22;8830;50.978;5.058;2022-08-03T10:53:01;33.70;96.80
17425;DHT22;8830;50.978;5.058;2022-08-03T10:55:40;33.50;96.90
17425;DHT22;8830;50.978;5.058;2022-08-03T10:58:49;33.40;97.00
17425;DHT22;8830;50.978;5.058;2022-08-03T11:01:50;33.40;97.10
17425;DHT22;8830;50.978;5.058;2022-08-03T11:04:22;33.30;97.30
17425;DHT22;8830;50.978;5.058;2022-08-03T11:07:24;33.70;97.30
17425;DHT22;8830;50.978;5.058;2022-08-03T11:10:32;33.60;96.90
17425;DHT22;8830;50.978;5.058;2022-08-03T11:13:08;33.40;97.40
17425;DHT22;8830;50.978;5.058;2022-08-03T11:15:42;33.20;97.50
17425;DHT22;8830;50.978;5.058;2022-08-03T11:18:17;33.50;97.60
17425;DHT22;8830;50.978;5.058;2022-08-03T11:20:51;33.60;97.30
17425;DHT22;8830;50.978;5.058;2022-08-03T11:23:53;33.80;97.40
17425;DHT22;8830;50.978;5.058;2022-08-03T11:26:20;33.80;97.70
17425;DHT22;8830;50.978;5.058;2022-08-03T11:28:49;33.80;97.20
17425;DHT22;8830;50.978;5.058;2022-08-03T11:31:45;33.80;97.50
17425;DHT22;8830;50.978;5.058;2022-08-03T11:34:18;33.60;97.40
17425;DHT22;8830;50.978;5.058;2022-08-03T11:37:23;33.60;97.70
17425;DHT22;8830;50.978;5.058;2022-08-03T11:39:58;33.70;97.70
17425;DHT22;8830;50.978;5.058;2022-08-03T11:42:43;34.10;97.10
17425;DHT22;8830;50.978;5.058;2022-08-03T11:47:45;34.20;96.80
17425;DHT22;8830;50.978;5.058;2022-08-03T11:52:44;34.20;96.80
17425;DHT22;8830;50.978;5.058;2022-08-03T11:55:18;33.70;97.10
17425;DHT22;8830;50.978;5.058;2022-08-03T11:57:47;34.00;97.20
17425;DHT22;8830;50.978;5.058;2022-08-03T12:00:23;34.10;96.60
17425;DHT22;8830;50.978;5.058;2022-08-03T12:03:01;34.10;96.90
17425;DHT22;8830;50.978;5.058;2022-08-03T12:05:38;33.90;97.10
17425;DHT22;8830;50.978;5.058;2022-08-03T12:08:09;33.10;96.10
17425;DHT22;8830;50.978;5.058;2022-08-03T12:10:46;35.10;97.00
17425;DHT22;8830;50.978;5.058;2022-08-03T12:13:16;33.80;96.60
17425;DHT22;8830;50.978;5.058;2022-08-03T12:18:31;33.90;97.10
17425;DHT22;8830;50.978;5.058;2022-08-03T12:21:05;33.90;97.30
17425;DHT22;8830;50.978;5.058;2022-08-03T12:23:34;34.10;97.30
17425;DHT22;8830;50.978;5.058;2022-08-03T12:26:08;34.10;96.50
17425;DHT22;8830;50.978;5.058;2022-08-03T12:28:46;34.10;96.80
17425;DHT22;8830;50.978;5.058;2022-08-03T12:31:19;34.00;96.90
17425;DHT22;8830;50.978;5.058;2022-08-03T12:33:57;33.90;96.70
17425;DHT22;8830;50.978;5.058;2022-08-03T12:36:30;29.30;95.30
17425;DHT22;8830;50.978;5.058;2022-08-03T12:39:04;34.50;97.70
17425;DHT22;8830;50.978;5.058;2022-08-03T12:41:36;34.40;96.40
17425;DHT22;8830;50.978;5.058;2022-08-03T12:44:06;33.60;96.80
17425;DHT22;8830;50.978;5.058;2022-08-03T12:46:38;33.30;97.20
17425;DHT22;8830;50.978;5.058;2022-08-03T12:49:08;33.40;97.10
17425;DHT22;8830;50.978;5.058;2022-08-03T12:51:56;33.90;97.00
17425;DHT22;8830;50.978;5.058;2022-08-03T12:54:26;34.30;96.50
17425;DHT22;8830;50.978;5.058;2022-08-03T12:57:03;34.30;95.90
17425;DHT22;8830;50.978;5.058;2022-08-03T12:59:32;34.00;96.20
17425;DHT22;8830;50.978;5.058;2022-08-03T13:02:02;33.90;96.50
17425;DHT22;8830;50.978;5.058;2022-08-03T13:04:33;33.50;96.60
17425;DHT22;8830;50.978;5.058;2022-08-03T13:07:02;33.50;96.60
17425;DHT22;8830;50.978;5.058;2022-08-03T13:09:41;33.30;96.70
17425;DHT22;8830;50.978;5.058;2022-08-03T13:12:12;33.30;96.80
17425;DHT22;8830;50.978;5.058;2022-08-03T13:14:41;33.30;96.90
17425;DHT22;8830;50.978;5.058;2022-08-03T13:17:08;33.30;96.90
17425;DHT22;8830;50.978;5.058;2022-08-03T13:19:38;33.20;96.90
17425;DHT22;8830;50.978;5.058;2022-08-03T13:22:13;33.10;96.80
17425;DHT22;8830;50.978;5.058;2022-08-03T13:24:47;33.10;97.00
17425;DHT22;8830;50.978;5.058;2022-08-03T13:27:16;33.10;96.80
17425;DHT22;8830;50.978;5.058;2022-08-03T13:32:19;33.20;96.90
17425;DHT22;8830;50.978;5.058;2022-08-03T13:39:50;33.50;96.70
17425;DHT22;8830;50.978;5.058;2022-08-03T13:42:23;33.70;96.70
17425;DHT22;8830;50.978;5.058;2022-08-03T13:47:19;34.00;96.10
17425;DHT22;8830;50.978;5.058;2022-08-03T13:49:46;34.30;96.00
17425;DHT22;8830;50.978;5.058;2022-08-03T13:52:18;34.50;95.70
17425;DHT22;8830;50.978;5.058;2022-08-03T13:54:48;34.80;95.50
17425;DHT22;8830;50.978;5.058;2022-08-03T13:57:15;34.90;95.50
17425;DHT22;8830;50.978;5.058;2022-08-03T13:59:46;35.10;94.80
17425;DHT22;8830;50.978;5.058;2022-08-03T14:02:16;35.10;94.90
17425;DHT22;8830;50.978;5.058;2022-08-03T14:04:52;35.10;94.90
17425;DHT22;8830;50.978;5.058;2022-08-03T14:07:21;35.20;94.90
17425;DHT22;8830;50.978;5.058;2022-08-03T14:09:49;34.90;94.80
17425;DHT22;8830;50.978;5.058;2022-08-03T14:12:16;34.90;95.10
17425;DHT22;8830;50.978;5.058;2022-08-03T14:14:45;35.00;94.30
17425;DHT22;8830;50.978;5.058;2022-08-03T14:17:13;34.40;94.70
17425;DHT22;8830;50.978;5.058;2022-08-03T14:19:42;34.30;95.10
17425;DHT22;8830;50.978;5.058;2022-08-03T14:22:09;34.50;94.90
17425;DHT22;8830;50.978;5.058;2022-08-03T14:24:37;34.60;94.70
17425;DHT22;8830;50.978;5.058;2022-08-03T14:27:05;34.70;94.60
17425;DHT22;8830;50.978;5.058;2022-08-03T14:29:33;34.70;95.50
17425;DHT22;8830;50.978;5.058;2022-08-03T14:32:04;34.20;94.80
17425;DHT22;8830;50.978;5.058;2022-08-03T14:34:32;34.30;95.70
17425;DHT22;8830;50.978;5.058;2022-08-03T14:41:55;34.00;94.80
17425;DHT22;8830;50.978;5.058;2022-08-03T14:44:31;33.90;94.80
17425;DHT22;8830;50.978;5.058;2022-08-03T14:46:58;34.90;95.10
17425;DHT22;8830;50.978;5.058;2022-08-03T14:49:27;33.90;94.60
17425;DHT22;8830;50.978;5.058;2022-08-03T14:51:54;33.60;95.30
17425;DHT22;8830;50.978;5.058;2022-08-03T14:54:21;33.40;95.60
17425;DHT22;8830;50.978;5.058;2022-08-03T14:56:49;33.70;95.50
17425;DHT22;8830;50.978;5.058;2022-08-03T14:59:19;34.00;95.00
17425;DHT22;8830;50.978;5.058;2022-08-03T15:01:50;34.00;94.90
17425;DHT22;8830;50.978;5.058;2022-08-03T15:04:17;34.50;94.50
17425;DHT22;8830;50.978;5.058;2022-08-03T15:06:46;34.60;94.80
17425;DHT22;8830;50.978;5.058;2022-08-03T15:09:13;34.40;94.80
17425;DHT22;8830;50.978;5.058;2022-08-03T15:11:40;34.30;94.40
17425;DHT22;8830;50.978;5.058;2022-08-03T15:14:07;34.40;94.40
17425;DHT22;8830;50.978;5.058;2022-08-03T15:16:35;34.50;94.00
17425;DHT22;8830;50.978;5.058;2022-08-03T15:19:02;34.50;93.80
17425;DHT22;8830;50.978;5.058;2022-08-03T15:21:29;34.40;93.90
17425;DHT22;8830;50.978;5.058;2022-08-03T15:23:58;34.40;94.20
17425;DHT22;8830;50.978;5.058;2022-08-03T15:26:25;34.30;94.10
17425;DHT22;8830;50.978;5.058;2022-08-03T15:28:52;34.20;94.10
17425;DHT22;8830;50.978;5.058;2022-08-03T15:31:21;34.00;94.20
17425;DHT22;8830;50.978;5.058;2022-08-03T15:33:48;33.90;94.30
17425;DHT22;8830;50.978;5.058;2022-08-03T15:36:16;33.90;94.10
17425;DHT22;8830;50.978;5.058;2022-08-03T15:38:43;34.10;93.70
17425;DHT22;8830;50.978;5.058;2022-08-03T15:41:13;34.10;94.00
17425;DHT22;8830;50.978;5.058;2022-08-03T15:43:40;34.00;94.50
17425;DHT22;8830;50.978;5.058;2022-08-03T15:46:08;33.70;94.30
17425;DHT22;8830;50.978;5.058;2022-08-03T15:51:03;33.50;94.30
17425;DHT22;8830;50.978;5.058;2022-08-03T15:53:31;33.50;94.60
17425;DHT22;8830;50.978;5.058;2022-08-03T15:55:59;33.60;94.50
17425;DHT22;8830;50.978;5.058;2022-08-03T15:58:27;33.90;94.10
17425;DHT22;8830;50.978;5.058;2022-08-03T16:00:55;33.90;94.30
17425;DHT22;8830;50.978;5.058;2022-08-03T16:03:23;33.80;94.30
17425;DHT22;8830;50.978;5.058;2022-08-03T16:05:53;33.70;94.30
17425;DHT22;8830;50.978;5.058;2022-08-03T16:08:20;33.50;94.30
17425;DHT22;8830;50.978;5.058;2022-08-03T16:10:48;33.50;94.40
17425;DHT22;8830;50.978;5.058;2022-08-03T16:13:15;33.60;94.30
17425;DHT22;8830;50.978;5.058;2022-08-03T16:15:44;33.40;94.10
17425;DHT22;8830;50.978;5.058;2022-08-03T16:18:11;33.40;94.30
17425;DHT22;8830;50.978;5.058;2022-08-03T16:20:38;33.30;94.00
17425;DHT22;8830;50.978;5.058;2022-08-03T16:23:06;33.30;94.20
17425;DHT22;8830;50.978;5.058;2022-08-03T16:25:33;33.40;94.20
17425;DHT22;8830;50.978;5.058;2022-08-03T16:28:00;33.40;94.10
17425;DHT22;8830;50.978;5.058;2022-08-03T16:30:28;33.70;93.80
17425;DHT22;8830;50.978;5.058;2022-08-03T16:33:00;33.60;93.90
17425;DHT22;8830;50.978;5.058;2022-08-03T16:35:31;33.60;93.90
17425;DHT22;8830;50.978;5.058;2022-08-03T16:38:01;33.60;94.10
17425;DHT22;8830;50.978;5.058;2022-08-03T16:42:59;33.30;94.00
17425;DHT22;8830;50.978;5.058;2022-08-03T16:45:34;33.30;94.10
17425;DHT22;8830;50.978;5.058;2022-08-03T16:48:19;33.20;94.20
17425;DHT22;8830;50.978;5.058;2022-08-03T16:51:01;33.30;94.50
17425;DHT22;8830;50.978;5.058;2022-08-03T16:53:30;33.20;93.90
17425;DHT22;8830;50.978;5.058;2022-08-03T16:56:06;33.30;94.10
17425;DHT22;8830;50.978;5.058;2022-08-03T17:01:03;33.30;94.10
17425;DHT22;8830;50.978;5.058;2022-08-03T17:06:04;34.90;95.60
17425;DHT22;8830;50.978;5.058;2022-08-03T17:08:34;29.50;95.00
17425;DHT22;8830;50.978;5.058;2022-08-03T17:11:03;33.30;94.10
17425;DHT22;8830;50.978;5.058;2022-08-03T17:13:33;33.30;94.20
17425;DHT22;8830;50.978;5.058;2022-08-03T17:16:04;33.50;94.10
17425;DHT22;8830;50.978;5.058;2022-08-03T17:18:44;33.50;94.10
17425;DHT22;8830;50.978;5.058;2022-08-03T17:21:15;33.50;94.40
17425;DHT22;8830;50.978;5.058;2022-08-03T17:23:51;33.50;94.50
17425;DHT22;8830;50.978;5.058;2022-08-03T17:26:23;33.20;94.30
17425;DHT22;8830;50.978;5.058;2022-08-03T17:29:08;32.90;94.40
17425;DHT22;8830;50.978;5.058;2022-08-03T17:31:38;32.90;94.80
17425;DHT22;8830;50.978;5.058;2022-08-03T17:34:12;32.90;94.50
17425;DHT22;8830;50.978;5.058;2022-08-03T17:36:43;32.90;94.80
17425;DHT22;8830;50.978;5.058;2022-08-03T17:39:13;32.60;94.50
17425;DHT22;8830;50.978;5.058;2022-08-03T17:41:52;32.60;94.70
17425;DHT22;8830;50.978;5.058;2022-08-03T17:44:20;32.30;94.70
17425;DHT22;8830;50.978;5.058;2022-08-03T17:46:50;32.30;95.00
17425;DHT22;8830;50.978;5.058;2022-08-03T17:49:21;32.00;95.30
17425;DHT22;8830;50.978;5.058;2022-08-03T17:51:56;32.00;95.40
17425;DHT22;8830;50.978;5.058;2022-08-03T17:54:39;32.00;95.40
17425;DHT22;8830;50.978;5.058;2022-08-03T17:57:21;31.90;95.60
17425;DHT22;8830;50.978;5.058;2022-08-03T17:59:57;31.90;95.50
17425;DHT22;8830;50.978;5.058;2022-08-03T18:03:03;31.80;96.30
17425;DHT22;8830;50.978;5.058;2022-08-03T18:05:59;31.70;96.60